Time;durP1;ratioP1;P1;durP2;ratioP2;P2;SDS_P1;SDS_P2;PMS_P1;PMS_P2;Temp;Humidity;BMP_temperature;BMP_pressure;BME280_temperature;BME280_humidity;BME280_pressure;Samples;Min_cycle;Max_cycle;Signal;HPM_P1;HPM_P2
2021/01/22 00:00:47;;;;;;;3.27;1.00;;;10.60;99.90;;;;;;5015287;28;20273;-75
2021/01/22 00:03:14;;;;;;;3.33;0.90;;;10.60;99.90;;;;;;5054262;28;20493;-76
2021/01/22 00:05:41;;;;;;;11.70;1.80;;;10.60;99.90;;;;;;5008699;28;20206;-77
2021/01/22 00:08:07;;;;;;;2.80;1.20;;;10.60;99.90;;;;;;5058809;28;20422;-76
2021/01/22 00:10:32;;;;;;;1.10;1.00;;;10.50;99.90;;;;;;5051391;28;20416;-76
2021/01/22 00:12:58;;;;;;;1.73;1.43;;;10.50;99.90;;;;;;5001697;28;20220;-76
2021/01/22 00:15:24;;;;;;;2.10;1.30;;;10.60;99.90;;;;;;5055998;28;21138;-77
2021/01/22 00:17:50;;;;;;;3.17;1.00;;;10.60;99.90;;;;;;5054627;28;20220;-77
2021/01/22 00:20:16;;;;;;;2.03;1.07;;;10.50;99.90;;;;;;5000469;28;20485;-77
2021/01/22 00:22:41;;;;;;;5.23;1.43;;;10.60;99.90;;;;;;5050067;28;20297;-77
2021/01/22 00:25:07;;;;;;;2.33;1.27;;;10.40;99.90;;;;;;5057773;28;20230;-77
2021/01/22 00:27:33;;;;;;;1.67;1.17;;;10.10;99.90;;;;;;5051929;28;20221;-76
2021/01/22 00:29:59;;;;;;;1.43;1.23;;;9.90;99.90;;;;;;5051024;28;22930;-76
2021/01/22 00:32:26;;;;;;;1.73;0.90;;;9.70;99.90;;;;;;5033258;28;20411;-76
2021/01/22 00:34:52;;;;;;;2.40;1.13;;;9.50;99.90;;;;;;5072442;28;20208;-76
2021/01/22 00:37:18;;;;;;;1.13;0.80;;;9.50;99.90;;;;;;5039845;28;21316;-76
2021/01/22 00:39:44;;;;;;;2.33;1.40;;;9.40;99.90;;;;;;5026512;28;20621;-76
2021/01/22 00:42:11;;;;;;;1.27;0.80;;;9.50;99.90;;;;;;5067701;28;20488;-76
2021/01/22 00:44:37;;;;;;;1.23;0.73;;;9.40;99.90;;;;;;5071881;28;20389;-76
2021/01/22 00:47:03;;;;;;;1.27;1.13;;;9.50;99.90;;;;;;5052086;28;20474;-76
2021/01/22 00:49:29;;;;;;;1.10;1.00;;;9.50;99.90;;;;;;5033388;28;20209;-76
2021/01/22 00:51:55;;;;;;;2.10;0.90;;;9.50;99.90;;;;;;5044077;28;20984;-76
2021/01/22 00:54:21;;;;;;;1.73;1.13;;;9.60;99.90;;;;;;5056231;28;20208;-76
2021/01/22 00:56:47;;;;;;;5.73;1.40;;;9.60;99.90;;;;;;5050989;28;20455;-77
2021/01/22 00:59:13;;;;;;;2.40;1.03;;;9.50;99.90;;;;;;5040827;28;20727;-76
2021/01/22 01:01:39;;;;;;;1.67;1.20;;;9.40;99.90;;;;;;5063698;28;20472;-76
2021/01/22 01:04:05;;;;;;;3.00;1.27;;;9.40;99.90;;;;;;5072067;28;20216;-76
2021/01/22 01:06:31;;;;;;;4.23;1.70;;;9.40;99.90;;;;;;5036140;28;20664;-76
2021/01/22 01:08:57;;;;;;;2.00;1.20;;;9.40;99.90;;;;;;5047426;28;20709;-76
2021/01/22 01:11:23;;;;;;;2.97;1.57;;;9.20;99.90;;;;;;5052919;28;20457;-76
2021/01/22 01:13:48;;;;;;;7.13;1.20;;;9.20;99.90;;;;;;5066689;28;20402;-76
2021/01/22 01:16:14;;;;;;;3.20;1.37;;;9.30;99.90;;;;;;5038242;28;20404;-75
2021/01/22 01:18:40;;;;;;;6.47;1.20;;;9.30;99.90;;;;;;5064287;28;20256;-76
2021/01/22 01:21:07;;;;;;;3.67;1.00;;;9.30;99.90;;;;;;5049537;28;20422;-75
2021/01/22 01:23:33;;;;;;;6.10;2.27;;;9.20;99.90;;;;;;5039416;28;20708;-76
2021/01/22 01:25:59;;;;;;;3.27;1.60;;;9.20;99.90;;;;;;5062504;28;20395;-76
2021/01/22 01:28:25;;;;;;;2.13;1.37;;;9.30;99.90;;;;;;5051642;28;21022;-76
2021/01/22 01:30:51;;;;;;;2.13;1.53;;;9.30;99.90;;;;;;5038475;28;21067;-76
2021/01/22 01:33:16;;;;;;;2.47;1.40;;;9.30;99.90;;;;;;5016202;28;20220;-76
2021/01/22 01:35:42;;;;;;;2.27;1.50;;;9.20;99.90;;;;;;5042917;28;20391;-76
2021/01/22 01:38:08;;;;;;;4.73;1.53;;;9.20;99.90;;;;;;5046666;28;20774;-76
2021/01/22 01:40:34;;;;;;;3.73;1.67;;;9.30;99.90;;;;;;5034528;28;20218;-76
2021/01/22 01:43:00;;;;;;;3.53;2.87;;;9.30;99.90;;;;;;5044897;28;20407;-76
2021/01/22 01:45:27;;;;;;;3.97;1.73;;;9.30;99.90;;;;;;5054631;28;20405;-76
2021/01/22 01:47:55;;;;;;;2.90;1.13;;;9.30;99.90;;;;;;5059002;28;20296;-76
2021/01/22 01:50:21;;;;;;;2.07;1.37;;;9.40;99.90;;;;;;5038913;28;20766;-76
2021/01/22 01:52:47;;;;;;;2.07;1.23;;;9.40;99.90;;;;;;5068220;28;20465;-76
2021/01/22 01:55:15;;;;;;;3.20;1.67;;;9.50;99.90;;;;;;5059021;28;20483;-76
2021/01/22 01:57:41;;;;;;;1.90;1.40;;;9.60;99.90;;;;;;5057508;28;20433;-76
2021/01/22 02:00:07;;;;;;;3.90;2.13;;;9.70;99.90;;;;;;5055335;28;21390;-76
2021/01/22 02:02:33;;;;;;;5.20;1.83;;;9.60;99.90;;;;;;5052816;28;20429;-76
2021/01/22 02:04:59;;;;;;;1.83;0.97;;;9.50;99.90;;;;;;5067552;28;20418;-76
2021/01/22 02:07:25;;;;;;;4.33;1.27;;;9.50;99.90;;;;;;5057508;28;20259;-77
2021/01/22 02:09:53;;;;;;;2.50;1.17;;;9.40;99.90;;;;;;5071279;28;21566;-76
2021/01/22 02:12:19;;;;;;;1.63;0.90;;;8.50;99.90;;;;;;5039728;28;20408;-76
2021/01/22 02:14:47;;;;;;;2.43;0.80;;;7.70;99.90;;;;;;5049091;28;20418;-77
2021/01/22 02:17:14;;;;;;;0.90;0.90;;;7.30;99.90;;;;;;5074635;28;20400;-76
2021/01/22 02:20:08;;;;;;;1.03;0.90;;;7.00;99.90;;;;;;5040029;28;20389;-76
2021/01/22 02:22:36;;;;;;;2.33;1.60;;;6.90;99.90;;;;;;5044710;28;20461;-76
2021/01/22 02:25:04;;;;;;;3.63;2.37;;;6.90;99.90;;;;;;5036672;28;20402;-76
2021/01/22 02:27:30;;;;;;;4.37;2.83;;;6.70;99.90;;;;;;5058827;28;20868;-76
2021/01/22 02:29:57;;;;;;;8.00;5.47;;;6.60;99.90;;;;;;5057858;28;20414;-77
2021/01/22 02:32:24;;;;;;;8.30;6.90;;;6.30;99.90;;;;;;5041125;28;20472;-76
2021/01/22 02:34:56;;;;;;;8.83;7.60;;;6.10;99.90;;;;;;5061634;28;20401;-76
2021/01/22 02:37:23;;;;;;;8.90;6.97;;;5.90;99.90;;;;;;5063206;28;20436;-77
2021/01/22 02:39:52;;;;;;;8.77;6.70;;;5.80;99.90;;;;;;5072999;28;20456;-77
2021/01/22 02:42:21;;;;;;;8.67;5.23;;;5.70;99.90;;;;;;5055272;28;20404;-77
2021/01/22 02:44:47;;;;;;;5.00;4.50;;;5.60;99.90;;;;;;5054770;28;20777;-77
2021/01/22 02:47:14;;;;;;;4.47;3.73;;;5.60;99.90;;;;;;5069907;28;20400;-77
2021/01/22 02:49:41;;;;;;;3.07;2.80;;;5.40;99.90;;;;;;5036886;28;20417;-77
2021/01/22 02:52:08;;;;;;;4.30;3.03;;;5.40;99.90;;;;;;5050064;28;20392;-76
2021/01/22 02:54:36;;;;;;;2.60;2.40;;;5.30;99.90;;;;;;5050237;28;21347;-76
2021/01/22 02:57:11;;;;;;;3.40;2.20;;;5.20;99.90;;;;;;5056045;28;20449;-76
2021/01/22 03:00:09;;;;;;;4.33;3.30;;;5.10;99.90;;;;;;5057157;28;20972;-76
2021/01/22 03:03:17;;;;;;;4.33;3.60;;;5.10;99.90;;;;;;5025713;28;20450;-77
2021/01/22 03:05:44;;;;;;;9.07;7.30;;;5.00;99.90;;;;;;5034967;28;22277;-77
2021/01/22 03:08:16;;;;;;;12.33;8.50;;;4.90;99.90;;;;;;5034518;28;20546;-76
2021/01/22 03:10:46;;;;;;;11.63;9.33;;;4.80;99.90;;;;;;5050179;28;20444;-76
2021/01/22 03:13:14;;;;;;;14.50;10.17;;;4.80;99.90;;;;;;5064059;28;20493;-76
2021/01/22 03:15:40;;;;;;;12.77;8.97;;;4.70;99.90;;;;;;5055605;28;20464;-76
2021/01/22 03:18:20;;;;;;;10.73;8.23;;;4.70;99.90;;;;;;5054508;28;20898;-77
2021/01/22 03:20:47;;;;;;;16.00;7.57;;;4.60;99.90;;;;;;5056054;28;20394;-77
2021/01/22 03:23:15;;;;;;;7.77;6.97;;;4.60;99.90;;;;;;5073194;28;20896;-76
2021/01/22 03:25:41;;;;;;;6.83;5.97;;;4.60;99.90;;;;;;5038026;28;20413;-77
2021/01/22 03:28:08;;;;;;;6.90;6.00;;;4.50;99.90;;;;;;5040473;28;20423;-76
2021/01/22 03:30:34;;;;;;;8.00;6.40;;;4.50;99.90;;;;;;5053947;28;20395;-75
2021/01/22 03:33:00;;;;;;;9.93;7.50;;;4.50;99.90;;;;;;5052338;28;20419;-75
2021/01/22 03:35:27;;;;;;;13.80;7.60;;;4.50;99.90;;;;;;5067184;28;20223;-75
2021/01/22 03:37:54;;;;;;;8.23;7.20;;;4.50;99.90;;;;;;5049073;28;20433;-76
2021/01/22 03:40:20;;;;;;;8.20;6.37;;;4.50;99.90;;;;;;5041729;28;20437;-76
2021/01/22 03:42:47;;;;;;;9.23;6.00;;;4.50;99.90;;;;;;5039890;28;20422;-77
2021/01/22 03:45:15;;;;;;;11.17;6.63;;;4.50;99.90;;;;;;5073421;28;20408;-75
2021/01/22 03:47:43;;;;;;;9.70;6.30;;;4.40;99.90;;;;;;5071162;28;21397;-76
2021/01/22 03:50:09;;;;;;;8.57;6.30;;;4.40;99.90;;;;;;5054206;28;20409;-76
2021/01/22 03:52:36;;;;;;;6.60;5.53;;;4.40;99.90;;;;;;5046506;28;20885;-76
2021/01/22 03:55:03;;;;;;;6.47;5.40;;;4.40;99.90;;;;;;5046191;28;20460;-76
2021/01/22 03:57:28;;;;;;;6.70;4.87;;;4.40;99.90;;;;;;5056271;28;20480;-76
2021/01/22 03:59:54;;;;;;;9.33;6.17;;;4.40;99.90;;;;;;5051831;28;20390;-76
2021/01/22 04:02:21;;;;;;;6.77;5.50;;;4.40;99.90;;;;;;5052230;28;20232;-76
2021/01/22 04:04:47;;;;;;;7.57;6.10;;;4.40;99.90;;;;;;5033686;28;20207;-76
2021/01/22 04:07:13;;;;;;;6.67;5.17;;;4.40;99.90;;;;;;5051622;28;20465;-76
2021/01/22 04:09:39;;;;;;;6.43;5.33;;;4.30;99.90;;;;;;5045358;28;20380;-75
2021/01/22 04:12:05;;;;;;;7.43;5.47;;;4.40;99.90;;;;;;5066529;28;20440;-76
2021/01/22 04:14:31;;;;;;;6.00;5.40;;;4.30;99.90;;;;;;5046257;28;21019;-76
2021/01/22 04:16:58;;;;;;;7.90;5.87;;;4.40;99.90;;;;;;5050519;28;20403;-76
2021/01/22 04:19:25;;;;;;;8.03;6.23;;;4.40;99.90;;;;;;5072500;28;20455;-76
2021/01/22 04:21:51;;;;;;;7.90;5.40;;;4.40;99.90;;;;;;5037507;28;20508;-76
2021/01/22 04:24:17;;;;;;;7.17;5.70;;;4.40;99.90;;;;;;5054329;28;20438;-76
2021/01/22 04:26:46;;;;;;;7.10;6.17;;;4.30;99.90;;;;;;5044982;28;21156;-76
2021/01/22 04:29:11;;;;;;;8.73;6.00;;;4.30;99.90;;;;;;5059070;28;23473;-76
2021/01/22 04:31:39;;;;;;;8.30;5.47;;;4.30;99.90;;;;;;5043849;28;20385;-76
2021/01/22 04:34:05;;;;;;;7.10;5.90;;;4.30;99.90;;;;;;5052742;28;20408;-76
2021/01/22 04:36:31;;;;;;;8.40;5.27;;;4.20;99.90;;;;;;5052885;28;20401;-76
2021/01/22 04:38:57;;;;;;;6.50;5.57;;;4.20;99.90;;;;;;5055442;28;20912;-76
2021/01/22 04:41:23;;;;;;;7.80;6.33;;;4.30;99.90;;;;;;5048568;28;20386;-76
2021/01/22 04:44:12;;;;;;;9.60;7.50;;;4.20;99.90;;;;;;5022686;28;20211;-76
2021/01/22 04:46:41;;;;;;;7.90;6.33;;;4.30;99.90;;;;;;4960970;28;20437;-76
2021/01/22 04:49:07;;;;;;;11.20;7.90;;;4.30;99.90;;;;;;4967350;28;20391;-76
2021/01/22 04:51:35;;;;;;;7.83;6.57;;;4.30;99.90;;;;;;4950824;28;20473;-76
2021/01/22 04:54:07;;;;;;;13.17;9.00;;;4.20;99.90;;;;;;4963618;28;20961;-76
2021/01/22 04:56:37;;;;;;;20.33;9.30;;;4.20;99.90;;;;;;4969370;28;20448;-76
2021/01/22 04:59:08;;;;;;;12.47;8.97;;;4.20;99.90;;;;;;4954357;28;20425;-76
2021/01/22 05:01:35;;;;;;;15.40;8.63;;;4.20;99.90;;;;;;4953699;28;20929;-76
2021/01/22 05:04:02;;;;;;;12.23;8.10;;;4.20;99.90;;;;;;4961573;28;21026;-77
2021/01/22 05:06:29;;;;;;;10.80;8.90;;;4.20;99.90;;;;;;4962248;28;20427;-76
2021/01/22 05:08:55;;;;;;;13.20;8.70;;;4.20;99.90;;;;;;4970088;28;20458;-76
2021/01/22 05:11:21;;;;;;;10.43;7.70;;;4.20;99.90;;;;;;4940158;28;20388;-76
2021/01/22 05:13:47;;;;;;;9.40;7.30;;;4.10;99.90;;;;;;4969364;28;20409;-76
2021/01/22 05:16:14;;;;;;;10.33;7.30;;;4.10;99.90;;;;;;4944399;28;20409;-76
2021/01/22 05:18:40;;;;;;;10.90;7.87;;;4.10;99.90;;;;;;4950450;28;20418;-77
2021/01/22 05:21:12;;;;;;;11.03;8.33;;;4.10;99.90;;;;;;4965745;28;20429;-76
2021/01/22 05:23:41;;;;;;;11.53;7.67;;;4.20;99.90;;;;;;4994150;28;20929;-77
2021/01/22 05:26:10;;;;;;;10.80;8.50;;;4.10;99.90;;;;;;5029074;28;20789;-77
2021/01/22 05:28:41;;;;;;;13.77;9.93;;;4.10;99.90;;;;;;5031993;28;20519;-76
2021/01/22 05:31:08;;;;;;;12.43;9.50;;;4.10;99.90;;;;;;5047538;28;20454;-76
2021/01/22 05:33:37;;;;;;;13.47;9.40;;;4.10;99.90;;;;;;5030867;28;20496;-76
2021/01/22 05:36:22;;;;;;;13.10;9.83;;;4.20;99.90;;;;;;5026276;28;20426;-76
2021/01/22 05:38:49;;;;;;;13.57;9.73;;;4.20;99.90;;;;;;5013485;28;20402;-76
2021/01/22 05:41:14;;;;;;;11.40;9.07;;;4.20;99.90;;;;;;5032111;28;20486;-76
2021/01/22 05:43:40;;;;;;;12.07;8.63;;;4.20;99.90;;;;;;5030047;28;20808;-76
2021/01/22 05:46:13;;;;;;;10.33;8.00;;;4.10;99.90;;;;;;5031480;28;20446;-76
2021/01/22 05:48:39;;;;;;;9.73;8.30;;;4.20;99.90;;;;;;5038507;28;20385;-77
2021/01/22 05:51:07;;;;;;;13.37;9.40;;;4.20;99.90;;;;;;5030194;28;20913;-76
2021/01/22 05:53:33;;;;;;;12.43;8.80;;;4.20;99.90;;;;;;5013812;28;20413;-76
2021/01/22 05:56:10;;;;;;;9.50;7.10;;;4.30;99.90;;;;;;5053744;28;20397;-76
2021/01/22 05:58:38;;;;;;;11.43;8.63;;;4.30;99.90;;;;;;5039121;28;20381;-76
2021/01/22 06:01:09;;;;;;;13.10;8.50;;;4.30;99.90;;;;;;4998951;28;20473;-76
2021/01/22 06:03:37;;;;;;;14.10;8.50;;;4.30;99.90;;;;;;5047412;28;20438;-76
2021/01/22 06:06:04;;;;;;;12.97;9.13;;;4.30;99.90;;;;;;5004493;28;20395;-77
2021/01/22 06:08:30;;;;;;;11.57;7.50;;;4.30;99.90;;;;;;5019419;28;20853;-77
2021/01/22 06:10:59;;;;;;;12.17;8.10;;;4.30;99.90;;;;;;5014171;28;20407;-76
2021/01/22 06:13:26;;;;;;;14.80;8.50;;;4.30;99.90;;;;;;5034252;28;20208;-76
2021/01/22 06:15:58;;;;;;;11.67;7.70;;;4.40;99.90;;;;;;5031950;28;20435;-76
2021/01/22 06:18:31;;;;;;;14.27;8.43;;;4.40;99.90;;;;;;5032518;28;20411;-76
2021/01/22 06:21:13;;;;;;;10.87;8.30;;;4.50;99.90;;;;;;5050733;28;20381;-76
2021/01/22 06:23:39;;;;;;;13.10;8.23;;;4.50;99.90;;;;;;5036604;28;21022;-76
2021/01/22 06:26:06;;;;;;;10.67;7.83;;;4.50;99.90;;;;;;5037647;28;20418;-76
2021/01/22 06:28:33;;;;;;;15.23;8.70;;;4.50;99.90;;;;;;5030243;28;20393;-77
2021/01/22 06:30:59;;;;;;;11.73;9.00;;;4.50;99.90;;;;;;5068107;28;20470;-77
2021/01/22 06:33:28;;;;;;;13.10;9.00;;;4.50;99.90;;;;;;5060192;28;20409;-77
2021/01/22 06:35:55;;;;;;;12.20;9.23;;;4.50;99.90;;;;;;5054080;28;20419;-76
2021/01/22 06:38:23;;;;;;;12.80;9.30;;;4.60;99.90;;;;;;5051573;28;20424;-77
2021/01/22 06:40:52;;;;;;;12.13;7.60;;;4.60;99.90;;;;;;5033945;28;20409;-77
2021/01/22 06:43:19;;;;;;;9.90;8.53;;;4.60;99.90;;;;;;5051877;28;20449;-76
2021/01/22 06:45:45;;;;;;;13.63;8.70;;;4.60;99.90;;;;;;5035531;28;21247;-76
2021/01/22 06:48:11;;;;;;;11.33;8.20;;;4.70;99.90;;;;;;5061607;28;20393;-76
2021/01/22 06:50:38;;;;;;;10.80;8.00;;;4.70;99.90;;;;;;5034548;28;20400;-76
2021/01/22 06:53:08;;;;;;;12.53;8.93;;;4.70;99.90;;;;;;5047610;28;20228;-76
2021/01/22 06:55:54;;;;;;;11.90;7.93;;;4.70;99.90;;;;;;5050024;28;20422;-76
2021/01/22 06:58:24;;;;;;;13.30;8.60;;;4.70;99.90;;;;;;5054637;28;21398;-76
2021/01/22 07:00:52;;;;;;;13.10;8.80;;;4.80;99.90;;;;;;5068177;28;20384;-77
2021/01/22 07:03:37;;;;;;;9.87;8.80;;;4.70;99.90;;;;;;5047807;28;20930;-76
2021/01/22 07:06:31;;;;;;;13.53;8.50;;;4.80;99.90;;;;;;5069001;28;20401;-76
2021/01/22 07:09:00;;;;;;;13.20;9.17;;;4.80;99.90;;;;;;5065932;28;20383;-76
2021/01/22 07:11:53;;;;;;;11.90;8.17;;;4.70;99.90;;;;;;5035965;28;20397;-76
2021/01/22 07:14:33;;;;;;;12.70;8.03;;;4.70;99.90;;;;;;5056615;28;20874;-76
2021/01/22 07:17:12;;;;;;;11.30;7.20;;;4.80;99.90;;;;;;5048983;28;20408;-76
2021/01/22 07:19:40;;;;;;;12.60;8.80;;;4.80;99.90;;;;;;5036992;28;20880;-76
2021/01/22 07:22:06;;;;;;;11.40;8.27;;;4.80;99.90;;;;;;5036778;28;20510;-76
2021/01/22 07:24:34;;;;;;;14.40;7.57;;;4.70;99.90;;;;;;5038428;28;20384;-76
2021/01/22 07:27:04;;;;;;;11.90;7.63;;;4.70;99.90;;;;;;5038985;28;20404;-76
2021/01/22 07:29:30;;;;;;;10.80;7.50;;;4.80;99.90;;;;;;5054342;28;20387;-77
2021/01/22 07:31:56;;;;;;;16.50;8.20;;;4.80;99.90;;;;;;5038504;28;20895;-76
2021/01/22 07:34:37;;;;;;;11.30;7.50;;;4.80;99.90;;;;;;5059389;28;20606;-77
2021/01/22 07:37:05;;;;;;;15.90;8.50;;;4.80;99.90;;;;;;5062353;28;20914;-76
2021/01/22 07:39:31;;;;;;;13.27;7.57;;;4.80;99.90;;;;;;5046382;28;20410;-76
2021/01/22 07:42:04;;;;;;;13.17;8.10;;;4.90;99.90;;;;;;5048687;28;20413;-76
2021/01/22 07:44:31;;;;;;;21.53;8.60;;;4.90;99.90;;;;;;5065705;28;20388;-76
2021/01/22 07:46:57;;;;;;;10.63;8.37;;;5.00;99.90;;;;;;5044801;28;20431;-76
2021/01/22 07:49:23;;;;;;;9.67;7.17;;;5.00;99.90;;;;;;5029022;28;21182;-75
2021/01/22 07:51:50;;;;;;;10.20;6.50;;;5.00;99.90;;;;;;5039049;28;20216;-76
2021/01/22 07:54:16;;;;;;;14.00;9.60;;;5.10;99.90;;;;;;5028747;28;20465;-75
2021/01/22 07:56:42;;;;;;;15.07;8.50;;;5.10;99.90;;;;;;5034469;28;20450;-76
2021/01/22 07:59:11;;;;;;;15.70;9.47;;;5.10;99.90;;;;;;5044315;28;20561;-76
2021/01/22 08:01:37;;;;;;;13.40;9.33;;;5.10;99.90;;;;;;5054803;28;20787;-76
2021/01/22 08:04:04;;;;;;;9.80;7.97;;;5.20;99.90;;;;;;5019484;28;20441;-76
2021/01/22 08:06:50;;;;;;;11.60;8.30;;;5.20;99.90;;;;;;5048415;28;21049;-76
2021/01/22 08:09:17;;;;;;;16.40;8.80;;;5.20;99.90;;;;;;5045219;28;20381;-76
2021/01/22 08:11:44;;;;;;;11.73;8.07;;;5.30;99.90;;;;;;5038321;28;20406;-76
2021/01/22 08:14:10;;;;;;;14.43;9.50;;;5.30;99.90;;;;;;5052689;28;20437;-76
2021/01/22 08:16:38;;;;;;;11.97;7.30;;;5.30;99.90;;;;;;5066053;28;20506;-76
2021/01/22 08:19:05;;;;;;;12.20;7.87;;;5.30;99.90;;;;;;5065247;28;20458;-75
2021/01/22 08:21:36;;;;;;;12.53;8.17;;;5.30;99.90;;;;;;5064506;28;20385;-75
2021/01/22 08:24:10;;;;;;;12.50;7.87;;;5.40;99.90;;;;;;5057538;28;21540;-75
2021/01/22 08:26:37;;;;;;;11.80;7.40;;;5.50;99.90;;;;;;5033253;28;20414;-78
2021/01/22 08:29:04;;;;;;;10.90;8.30;;;5.40;99.90;;;;;;5053050;28;20413;-77
2021/01/22 08:31:53;;;;;;;11.73;8.60;;;5.50;99.90;;;;;;5043582;28;20513;-76
2021/01/22 08:34:20;;;;;;;10.90;7.13;;;5.40;99.90;;;;;;4971045;28;21009;-76
2021/01/22 08:36:47;;;;;;;8.47;6.77;;;5.50;99.90;;;;;;4968935;28;20494;-76
2021/01/22 08:39:12;;;;;;;10.90;7.57;;;5.70;99.90;;;;;;4970091;28;20959;-76
2021/01/22 08:41:38;;;;;;;11.90;7.17;;;5.60;99.90;;;;;;5000847;28;20425;-75
2021/01/22 08:44:05;;;;;;;10.23;6.67;;;5.70;99.90;;;;;;4941582;28;20333;-76
2021/01/22 08:46:32;;;;;;;15.20;8.37;;;5.90;99.90;;;;;;4968094;28;20215;-76
2021/01/22 08:49:11;;;;;;;11.17;7.50;;;5.90;99.90;;;;;;4967165;28;20446;-76
2021/01/22 08:51:39;;;;;;;8.70;7.03;;;5.90;99.90;;;;;;4993080;28;20469;-76
2021/01/22 08:54:05;;;;;;;14.93;7.80;;;6.00;99.90;;;;;;4971462;28;20385;-77
2021/01/22 08:56:32;;;;;;;10.17;7.57;;;6.10;99.90;;;;;;4980838;28;20818;-75
2021/01/22 08:59:13;;;;;;;12.87;7.60;;;6.10;99.90;;;;;;4966392;28;20407;-76
2021/01/22 09:01:53;;;;;;;15.90;8.50;;;6.10;99.90;;;;;;5001238;28;20400;-76
2021/01/22 09:04:34;;;;;;;9.67;7.57;;;6.00;99.90;;;;;;4977137;28;20853;-76
2021/01/22 09:07:14;;;;;;;12.70;6.80;;;6.00;99.90;;;;;;4986383;28;20430;-77
2021/01/22 09:09:48;;;;;;;10.70;7.80;;;5.90;99.90;;;;;;4957452;28;20824;-76
2021/01/22 09:12:24;;;;;;;13.43;7.30;;;5.90;99.90;;;;;;5031083;28;20919;-76
2021/01/22 09:15:00;;;;;;;12.80;7.17;;;5.90;99.90;;;;;;5038323;28;20476;-76
2021/01/22 09:17:50;;;;;;;9.60;7.00;;;5.90;99.90;;;;;;5027132;28;21549;-76
2021/01/22 09:20:24;;;;;;;11.73;7.70;;;5.90;99.90;;;;;;5060066;28;20430;-76
2021/01/22 09:22:53;;;;;;;12.07;8.07;;;6.00;99.90;;;;;;5062957;28;21333;-75
2021/01/22 09:25:22;;;;;;;12.97;7.93;;;6.00;99.90;;;;;;5043732;28;20904;-76
2021/01/22 09:27:49;;;;;;;16.07;8.47;;;6.10;99.90;;;;;;5046364;28;20450;-76
2021/01/22 09:30:20;;;;;;;8.70;7.20;;;6.20;99.90;;;;;;5056742;28;20486;-76
2021/01/22 09:32:48;;;;;;;11.90;8.20;;;6.30;99.90;;;;;;5030820;28;20410;-75
2021/01/22 09:35:15;;;;;;;11.57;7.27;;;6.40;99.90;;;;;;5045193;28;20496;-76
2021/01/22 09:37:41;;;;;;;10.60;6.40;;;6.30;99.90;;;;;;5044560;28;20445;-76
2021/01/22 09:40:08;;;;;;;12.47;7.87;;;6.50;99.90;;;;;;5022302;28;20447;-76
2021/01/22 09:42:35;;;;;;;14.60;8.00;;;6.70;99.90;;;;;;5060433;28;20596;-77
2021/01/22 09:45:01;;;;;;;11.23;7.60;;;6.70;99.90;;;;;;5042039;28;20430;-75
2021/01/22 09:47:26;;;;;;;8.47;6.60;;;6.80;99.90;;;;;;5043413;28;22952;-76
2021/01/22 09:49:52;;;;;;;8.67;5.60;;;6.70;99.90;;;;;;5026615;28;20427;-77
2021/01/22 09:52:18;;;;;;;7.87;7.03;;;6.70;99.90;;;;;;5021950;28;20209;-76
2021/01/22 09:54:47;;;;;;;11.87;5.93;;;6.70;99.90;;;;;;5025451;28;20426;-77
2021/01/22 09:57:13;;;;;;;9.10;5.90;;;6.80;99.90;;;;;;5009233;28;20433;-76
2021/01/22 09:59:39;;;;;;;14.33;7.13;;;6.90;99.90;;;;;;5046416;28;20424;-77
2021/01/22 10:02:05;;;;;;;12.83;7.23;;;6.90;99.90;;;;;;5043445;28;20224;-76
2021/01/22 10:04:33;;;;;;;8.77;6.73;;;6.80;99.90;;;;;;5062086;28;20431;-76
2021/01/22 10:06:59;;;;;;;11.87;7.47;;;7.10;99.90;;;;;;5059257;28;20217;-76
2021/01/22 10:09:25;;;;;;;9.37;7.10;;;7.00;99.90;;;;;;5030528;28;20483;-76
2021/01/22 10:11:51;;;;;;;13.17;7.97;;;7.20;99.90;;;;;;5045951;28;20213;-76
2021/01/22 10:14:17;;;;;;;12.40;7.43;;;7.20;99.90;;;;;;5032755;28;20408;-76
2021/01/22 10:16:42;;;;;;;7.43;6.57;;;7.50;99.90;;;;;;5032769;28;20563;-76
2021/01/22 10:19:08;;;;;;;8.37;7.60;;;7.20;99.90;;;;;;5030620;28;20222;-76
2021/01/22 10:21:34;;;;;;;9.10;6.93;;;7.20;99.90;;;;;;5046827;28;20470;-76
2021/01/22 10:24:00;;;;;;;12.57;7.73;;;7.10;99.90;;;;;;5048158;28;20221;-76
2021/01/22 10:26:26;;;;;;;11.00;7.50;;;7.10;99.90;;;;;;5013987;28;20933;-76
2021/01/22 10:28:52;;;;;;;8.13;5.77;;;7.40;99.90;;;;;;5014545;28;20209;-76
2021/01/22 10:31:20;;;;;;;8.80;6.70;;;7.00;99.90;;;;;;5028570;28;20281;-76
2021/01/22 10:33:47;;;;;;;11.37;6.77;;;7.20;99.90;;;;;;5046914;28;20414;-76
2021/01/22 10:36:14;;;;;;;8.10;6.17;;;7.30;99.90;;;;;;5063680;28;20415;-77
2021/01/22 10:38:41;;;;;;;12.20;6.23;;;7.20;99.90;;;;;;5063380;28;20436;-76
2021/01/22 10:41:07;;;;;;;8.53;6.70;;;7.20;99.90;;;;;;5041067;28;20410;-76
2021/01/22 10:43:34;;;;;;;8.77;6.20;;;7.40;99.90;;;;;;5029872;28;20934;-76
2021/01/22 10:46:00;;;;;;;6.73;5.63;;;7.20;99.90;;;;;;5062117;28;20415;-76
2021/01/22 10:48:26;;;;;;;7.47;6.00;;;7.00;99.90;;;;;;5028015;28;20902;-77
2021/01/22 10:50:52;;;;;;;13.83;7.10;;;6.90;99.90;;;;;;5030934;28;20490;-77
2021/01/22 10:53:19;;;;;;;10.60;7.77;;;7.00;99.90;;;;;;5045572;28;21004;-76
2021/01/22 10:55:45;;;;;;;14.00;8.10;;;6.90;99.90;;;;;;5066709;28;20410;-76
2021/01/22 10:58:11;;;;;;;22.30;7.93;;;7.10;99.90;;;;;;5021422;28;20393;-75
2021/01/22 11:00:38;;;;;;;13.80;9.00;;;7.10;99.90;;;;;;5069967;28;20462;-77
2021/01/22 11:03:04;;;;;;;16.30;7.70;;;7.30;99.90;;;;;;5071423;28;20418;-76
2021/01/22 11:05:31;;;;;;;9.43;7.00;;;7.10;99.90;;;;;;5075965;28;20417;-76
2021/01/22 11:07:57;;;;;;;11.00;7.97;;;7.50;99.90;;;;;;5052617;28;20373;-76
2021/01/22 11:10:24;;;;;;;15.87;7.53;;;8.40;99.90;;;;;;5036612;28;20412;-76
2021/01/22 11:12:50;;;;;;;12.40;6.70;;;9.80;99.90;;;;;;5052448;28;20936;-76
2021/01/22 11:15:17;;;;;;;13.17;7.00;;;9.20;99.90;;;;;;5037159;28;20393;-76
2021/01/22 11:17:43;;;;;;;9.27;5.67;;;9.10;99.90;;;;;;5039130;28;20490;-75
2021/01/22 11:20:09;;;;;;;6.77;5.50;;;9.20;99.90;;;;;;5038570;28;20747;-76
2021/01/22 11:22:35;;;;;;;10.00;7.77;;;10.70;99.90;;;;;;5053534;28;20415;-75
2021/01/22 11:25:04;;;;;;;10.50;6.67;;;9.80;99.90;;;;;;5010859;28;21087;-76
2021/01/22 11:27:30;;;;;;;12.30;6.77;;;10.40;99.90;;;;;;5042473;28;20415;-76
2021/01/22 11:29:56;;;;;;;10.60;7.47;;;9.60;99.90;;;;;;5048058;28;21002;-76
2021/01/22 11:32:21;;;;;;;9.70;7.03;;;8.90;99.90;;;;;;5037605;28;20209;-76
2021/01/22 11:34:48;;;;;;;9.87;7.47;;;8.40;99.90;;;;;;5067495;28;20256;-76
2021/01/22 11:37:14;;;;;;;10.60;8.37;;;8.10;99.90;;;;;;5064840;28;20426;-76
2021/01/22 11:39:40;;;;;;;9.80;7.83;;;8.10;99.90;;;;;;5061836;28;20451;-76
2021/01/22 11:42:08;;;;;;;10.20;7.33;;;7.80;99.90;;;;;;5028988;28;21079;-76
2021/01/22 11:44:36;;;;;;;8.20;7.10;;;8.20;99.90;;;;;;5049618;28;20434;-76
2021/01/22 11:47:03;;;;;;;12.30;8.03;;;8.60;99.90;;;;;;5065126;28;20403;-76
2021/01/22 11:49:29;;;;;;;8.07;7.30;;;9.20;99.90;;;;;;5049346;28;20443;-76
2021/01/22 11:51:55;;;;;;;10.63;7.23;;;9.70;99.90;;;;;;5049978;28;20431;-76
2021/01/22 11:54:21;;;;;;;12.30;7.07;;;9.90;99.90;;;;;;5042173;28;20955;-77
2021/01/22 11:56:47;;;;;;;7.83;6.47;;;10.00;99.90;;;;;;5067340;28;20745;-76
2021/01/22 11:59:14;;;;;;;7.33;6.63;;;9.10;99.90;;;;;;5065014;28;20394;-76
2021/01/22 12:01:39;;;;;;;14.13;7.40;;;8.70;99.90;;;;;;5032805;28;20389;-75
2021/01/22 12:04:07;;;;;;;9.13;8.23;;;8.70;99.90;;;;;;5064838;28;20443;-76
2021/01/22 12:06:33;;;;;;;8.13;7.33;;;8.70;99.90;;;;;;5053761;28;20211;-76
2021/01/22 12:08:59;;;;;;;10.17;7.00;;;9.30;99.90;;;;;;5049943;28;20424;-77
2021/01/22 12:11:26;;;;;;;7.50;6.77;;;10.00;99.90;;;;;;5051508;28;20244;-76
2021/01/22 12:13:52;;;;;;;9.50;7.13;;;9.30;99.90;;;;;;5066478;28;20300;-76
2021/01/22 12:16:18;;;;;;;8.10;6.57;;;9.70;99.90;;;;;;5049388;28;20423;-76
2021/01/22 12:18:44;;;;;;;8.57;6.93;;;10.50;99.90;;;;;;5034361;28;20409;-75
2021/01/22 12:21:10;;;;;;;11.63;7.80;;;10.20;99.90;;;;;;5033054;28;20213;-76
2021/01/22 12:23:36;;;;;;;9.13;7.87;;;9.60;99.90;;;;;;5063438;28;20626;-76
2021/01/22 12:26:03;;;;;;;13.43;8.27;;;9.20;99.90;;;;;;5051534;28;21065;-76
2021/01/22 12:28:28;;;;;;;10.43;8.87;;;8.90;99.90;;;;;;5032217;28;20404;-76
2021/01/22 12:30:54;;;;;;;10.73;8.90;;;8.20;99.90;;;;;;5044393;28;20426;-76
2021/01/22 12:33:20;;;;;;;15.30;9.80;;;8.30;99.90;;;;;;5065365;28;20327;-76
2021/01/22 12:35:49;;;;;;;11.97;9.03;;;8.30;99.90;;;;;;5048046;28;20202;-77
2021/01/22 12:38:17;;;;;;;14.83;10.93;;;8.10;99.90;;;;;;5046750;28;20386;-75
2021/01/22 12:40:42;;;;;;;13.27;10.23;;;8.10;99.90;;;;;;5043785;28;20427;-76
2021/01/22 12:43:08;;;;;;;10.50;9.50;;;8.10;99.90;;;;;;5020870;28;20418;-76
2021/01/22 12:45:34;;;;;;;12.10;7.90;;;9.10;99.90;;;;;;5038483;28;20212;-77
2021/01/22 12:48:00;;;;;;;9.43;8.43;;;10.30;99.90;;;;;;5033733;28;20873;-76
2021/01/22 12:50:26;;;;;;;10.17;7.73;;;11.00;99.90;;;;;;5044297;28;20427;-77
2021/01/22 12:52:52;;;;;;;10.63;7.87;;;11.70;99.90;;;;;;5034180;28;20271;-76
2021/01/22 12:55:18;;;;;;;10.43;7.90;;;12.30;99.90;;;;;;5030841;28;20424;-75